CNY weather

Canyonlands Field
Moab, Utah, United States

Public forecast

Using degrees Fahrenheit for public forecast. Weather courtesy of forecast.io.

Current aviation weather report (METAR) for Canyonlands Field

Retrieved 2020/04/03 06:53 UTC (1 hour ago):

KCNY 030653Z AUTO 00000KT 10SM CLR M01/M14 A3006 RMK AO2 SLP187 T10111144 401441011

Aviation forecast (TAF) for Canyonlands Field

Retrieved 2020/04/03 06:22 UTC (2 hours ago):

TAF KCNY 030520Z 0306/0406 34005KT P6SM FEW110 FM030800 VRB05KT P6SM SKC FM032100 29009G19KT P6SM FEW110 BKN200